Startpagina
METAR-TAF:

METAR-TAF

Vliegvelden :

Guilin, China

breedte: 25-20N, lengte: 110-18E, hoogte: 166 m

Actueel weer

Dit bericht is 21 minuten geleden gemaakt, om 07:00 UTC
Wind 6 kt uit het zuiden, variërend tussen het zuidoosten en het zuiden
Temperatuur 32°C
Vochtigheid 52%
Druk 1007 hPa
Zicht 10 km of meer
Weinig wolken op 4000 ft

METAR: ZGKL 300700Z 17003MPS 130V190 9999 FEW040 32/21 Q1007 NOSIG

Tijdstip: 15:21 (07:21 UTC)

Verwachting

Dit bericht is 4 uur en het 10 minuten geleden gemaakt, om 03:11 UTC
Verwachting geldig van 30 om 06 UTC tot 31 om 06 UTC
Wind 6 kt uit het zuiden
Zicht: 8000 m
Weinig wolken op 5000 ft

TAF: ZGKL 300311Z 3006/3106 18003MPS 8000 FEW050 TX33/3007Z TN23/3022Z

Waarnemingen en weersverwachtingen van meer dan 4000 vliegvelden (METAR en TAF).

De beschikbare stations zijn de gele en rode punten op de kaart.

Ga met uw muis naar het station om de naam te zien.

Klik dan om waarnemingen en weersverwachtingen te zien.

kaart wijzigen: klik op de groene knoppen met een zwart kruis om in te zoomen, op de groene knop met een streepje om uit te zoomen of op de groene pijlen voor aangrenzende kaarten.


METAR-TAF: